sensor_id;sensor_type;location;lat;lon;timestamp;temperature;humidity
18581;DHT22;9420;50.876;7.012;2022-08-19T00:01:22;19.70;99.90
18581;DHT22;9420;50.876;7.012;2022-08-19T00:03:50;19.80;99.90
18581;DHT22;9420;50.876;7.012;2022-08-19T00:06:17;19.80;99.90
18581;DHT22;9420;50.876;7.012;2022-08-19T00:08:46;19.80;99.90
18581;DHT22;9420;50.876;7.012;2022-08-19T00:11:13;19.70;99.90
18581;DHT22;9420;50.876;7.012;2022-08-19T00:13:40;19.70;99.90
18581;DHT22;9420;50.876;7.012;2022-08-19T00:16:07;19.60;99.90
18581;DHT22;9420;50.876;7.012;2022-08-19T00:18:34;19.50;99.90
18581;DHT22;9420;50.876;7.012;2022-08-19T00:21:02;19.50;99.90
18581;DHT22;9420;50.876;7.012;2022-08-19T00:23:34;19.40;99.90
18581;DHT22;9420;50.876;7.012;2022-08-19T00:26:03;19.30;99.90
18581;DHT22;9420;50.876;7.012;2022-08-19T00:28:31;19.10;99.90
18581;DHT22;9420;50.876;7.012;2022-08-19T00:31:01;19.20;99.90
18581;DHT22;9420;50.876;7.012;2022-08-19T00:33:30;19.20;99.90
18581;DHT22;9420;50.876;7.012;2022-08-19T00:35:58;19.20;99.90
18581;DHT22;9420;50.876;7.012;2022-08-19T00:38:26;19.20;99.90
18581;DHT22;9420;50.876;7.012;2022-08-19T00:40:53;19.20;99.90
18581;DHT22;9420;50.876;7.012;2022-08-19T00:43:24;19.20;99.90
18581;DHT22;9420;50.876;7.012;2022-08-19T00:45:54;19.20;99.90
18581;DHT22;9420;50.876;7.012;2022-08-19T00:48:21;19.20;99.90
18581;DHT22;9420;50.876;7.012;2022-08-19T00:50:50;19.20;99.90
18581;DHT22;9420;50.876;7.012;2022-08-19T00:53:23;19.30;99.90
18581;DHT22;9420;50.876;7.012;2022-08-19T00:55:56;19.20;99.90
18581;DHT22;9420;50.876;7.012;2022-08-19T00:58:30;19.20;99.90
18581;DHT22;9420;50.876;7.012;2022-08-19T01:01:00;19.20;99.90
18581;DHT22;9420;50.876;7.012;2022-08-19T01:03:27;19.10;99.90
18581;DHT22;9420;50.876;7.012;2022-08-19T01:05:55;19.00;99.90
18581;DHT22;9420;50.876;7.012;2022-08-19T01:08:23;18.90;99.90
18581;DHT22;9420;50.876;7.012;2022-08-19T01:10:53;18.80;99.90
18581;DHT22;9420;50.876;7.012;2022-08-19T01:13:24;18.60;99.90
18581;DHT22;9420;50.876;7.012;2022-08-19T01:15:58;18.50;99.90
18581;DHT22;9420;50.876;7.012;2022-08-19T01:18:31;18.40;99.90
18581;DHT22;9420;50.876;7.012;2022-08-19T01:21:05;18.40;99.90
18581;DHT22;9420;50.876;7.012;2022-08-19T01:23:37;18.40;99.90
18581;DHT22;9420;50.876;7.012;2022-08-19T01:26:13;18.40;99.90
18581;DHT22;9420;50.876;7.012;2022-08-19T01:28:43;18.30;99.90
18581;DHT22;9420;50.876;7.012;2022-08-19T01:31:14;18.30;99.90
18581;DHT22;9420;50.876;7.012;2022-08-19T01:33:44;18.30;99.90
18581;DHT22;9420;50.876;7.012;2022-08-19T01:36:16;18.30;99.90
18581;DHT22;9420;50.876;7.012;2022-08-19T01:38:52;18.30;99.90
18581;DHT22;9420;50.876;7.012;2022-08-19T01:41:19;18.30;99.90
18581;DHT22;9420;50.876;7.012;2022-08-19T01:43:49;18.30;99.90
18581;DHT22;9420;50.876;7.012;2022-08-19T01:46:16;18.20;99.90
18581;DHT22;9420;50.876;7.012;2022-08-19T01:48:44;18.20;99.90
18581;DHT22;9420;50.876;7.012;2022-08-19T01:51:12;18.10;99.90
18581;DHT22;9420;50.876;7.012;2022-08-19T01:53:40;18.20;99.90
18581;DHT22;9420;50.876;7.012;2022-08-19T01:56:09;18.10;99.90
18581;DHT22;9420;50.876;7.012;2022-08-19T01:58:44;18.10;99.90
18581;DHT22;9420;50.876;7.012;2022-08-19T02:01:17;18.00;99.90
18581;DHT22;9420;50.876;7.012;2022-08-19T02:03:45;18.10;99.90
18581;DHT22;9420;50.876;7.012;2022-08-19T02:06:13;18.00;99.90
18581;DHT22;9420;50.876;7.012;2022-08-19T02:08:42;18.10;99.90
18581;DHT22;9420;50.876;7.012;2022-08-19T02:11:19;18.10;99.90
18581;DHT22;9420;50.876;7.012;2022-08-19T02:13:48;18.10;99.90
18581;DHT22;9420;50.876;7.012;2022-08-19T02:16:16;18.10;99.90
18581;DHT22;9420;50.876;7.012;2022-08-19T02:18:43;18.20;99.90
18581;DHT22;9420;50.876;7.012;2022-08-19T02:21:10;18.30;99.90
18581;DHT22;9420;50.876;7.012;2022-08-19T02:23:41;18.20;99.90
18581;DHT22;9420;50.876;7.012;2022-08-19T02:26:11;18.10;99.90
18581;DHT22;9420;50.876;7.012;2022-08-19T02:28:41;18.00;99.90
18581;DHT22;9420;50.876;7.012;2022-08-19T02:31:09;18.00;99.90
18581;DHT22;9420;50.876;7.012;2022-08-19T02:33:37;17.90;99.90
18581;DHT22;9420;50.876;7.012;2022-08-19T02:36:05;17.90;99.90
18581;DHT22;9420;50.876;7.012;2022-08-19T02:38:34;17.90;99.90
18581;DHT22;9420;50.876;7.012;2022-08-19T02:41:04;17.80;99.90
18581;DHT22;9420;50.876;7.012;2022-08-19T02:43:36;17.80;99.90
18581;DHT22;9420;50.876;7.012;2022-08-19T02:46:13;17.90;99.90
18581;DHT22;9420;50.876;7.012;2022-08-19T02:48:43;17.90;99.90
18581;DHT22;9420;50.876;7.012;2022-08-19T02:51:16;17.80;99.90
18581;DHT22;9420;50.876;7.012;2022-08-19T02:53:44;17.90;99.90
18581;DHT22;9420;50.876;7.012;2022-08-19T02:56:12;17.90;99.90
18581;DHT22;9420;50.876;7.012;2022-08-19T02:58:41;17.90;99.90
18581;DHT22;9420;50.876;7.012;2022-08-19T03:01:10;17.90;99.90
18581;DHT22;9420;50.876;7.012;2022-08-19T03:03:38;17.90;99.90
18581;DHT22;9420;50.876;7.012;2022-08-19T03:06:07;17.90;99.90
18581;DHT22;9420;50.876;7.012;2022-08-19T03:08:38;18.10;99.90
18581;DHT22;9420;50.876;7.012;2022-08-19T03:11:11;18.10;99.90
18581;DHT22;9420;50.876;7.012;2022-08-19T03:13:41;18.00;99.90
18581;DHT22;9420;50.876;7.012;2022-08-19T03:16:10;18.00;99.90
18581;DHT22;9420;50.876;7.012;2022-08-19T03:18:37;17.90;99.90
18581;DHT22;9420;50.876;7.012;2022-08-19T03:21:05;17.80;99.90
18581;DHT22;9420;50.876;7.012;2022-08-19T03:23:33;17.80;99.90
18581;DHT22;9420;50.876;7.012;2022-08-19T03:26:03;17.70;99.90
18581;DHT22;9420;50.876;7.012;2022-08-19T03:28:32;17.70;99.90
18581;DHT22;9420;50.876;7.012;2022-08-19T03:31:03;17.70;99.90
18581;DHT22;9420;50.876;7.012;2022-08-19T03:33:34;17.70;99.90
18581;DHT22;9420;50.876;7.012;2022-08-19T03:36:09;17.70;99.90
18581;DHT22;9420;50.876;7.012;2022-08-19T03:38:40;17.70;99.90
18581;DHT22;9420;50.876;7.012;2022-08-19T03:41:11;17.70;99.90
18581;DHT22;9420;50.876;7.012;2022-08-19T03:43:40;17.70;99.90
18581;DHT22;9420;50.876;7.012;2022-08-19T03:46:11;17.70;99.90
18581;DHT22;9420;50.876;7.012;2022-08-19T03:48:41;17.70;99.90
18581;DHT22;9420;50.876;7.012;2022-08-19T03:51:16;17.80;99.90
18581;DHT22;9420;50.876;7.012;2022-08-19T03:53:44;17.70;99.90
18581;DHT22;9420;50.876;7.012;2022-08-19T03:56:12;17.70;99.90
18581;DHT22;9420;50.876;7.012;2022-08-19T03:58:42;17.70;99.90
18581;DHT22;9420;50.876;7.012;2022-08-19T04:01:13;17.60;99.90
18581;DHT22;9420;50.876;7.012;2022-08-19T04:03:43;17.50;99.90
18581;DHT22;9420;50.876;7.012;2022-08-19T04:06:13;17.50;99.90
18581;DHT22;9420;50.876;7.012;2022-08-19T04:08:44;17.50;99.90
18581;DHT22;9420;50.876;7.012;2022-08-19T04:11:15;17.40;99.90
18581;DHT22;9420;50.876;7.012;2022-08-19T04:13:46;17.40;99.90
18581;DHT22;9420;50.876;7.012;2022-08-19T04:16:14;17.40;99.90
18581;DHT22;9420;50.876;7.012;2022-08-19T04:18:41;17.40;99.90
18581;DHT22;9420;50.876;7.012;2022-08-19T04:21:08;17.50;99.90
18581;DHT22;9420;50.876;7.012;2022-08-19T04:23:43;17.50;99.90
18581;DHT22;9420;50.876;7.012;2022-08-19T04:26:13;17.50;99.90
18581;DHT22;9420;50.876;7.012;2022-08-19T04:28:41;17.50;99.90
18581;DHT22;9420;50.876;7.012;2022-08-19T04:31:14;17.40;99.90
18581;DHT22;9420;50.876;7.012;2022-08-19T04:33:43;17.30;99.90
18581;DHT22;9420;50.876;7.012;2022-08-19T04:36:16;17.30;99.90
18581;DHT22;9420;50.876;7.012;2022-08-19T04:38:46;17.30;99.90
18581;DHT22;9420;50.876;7.012;2022-08-19T04:41:13;17.40;99.90
18581;DHT22;9420;50.876;7.012;2022-08-19T04:43:58;17.40;99.90
18581;DHT22;9420;50.876;7.012;2022-08-19T04:46:26;17.40;99.90
18581;DHT22;9420;50.876;7.012;2022-08-19T04:48:54;17.40;99.90
18581;DHT22;9420;50.876;7.012;2022-08-19T04:51:22;17.40;99.90
18581;DHT22;9420;50.876;7.012;2022-08-19T04:53:50;17.50;99.90
18581;DHT22;9420;50.876;7.012;2022-08-19T04:56:20;17.50;99.90
18581;DHT22;9420;50.876;7.012;2022-08-19T04:58:48;17.50;99.90
18581;DHT22;9420;50.876;7.012;2022-08-19T05:01:19;17.50;99.90
18581;DHT22;9420;50.876;7.012;2022-08-19T05:03:49;17.60;99.90
18581;DHT22;9420;50.876;7.012;2022-08-19T05:06:18;17.60;99.90
18581;DHT22;9420;50.876;7.012;2022-08-19T05:08:48;17.60;99.90
18581;DHT22;9420;50.876;7.012;2022-08-19T05:11:18;17.70;99.90
18581;DHT22;9420;50.876;7.012;2022-08-19T05:13:47;17.70;99.90
18581;DHT22;9420;50.876;7.012;2022-08-19T05:16:16;17.80;99.90
18581;DHT22;9420;50.876;7.012;2022-08-19T05:18:46;18.00;99.90
18581;DHT22;9420;50.876;7.012;2022-08-19T05:21:33;18.10;99.90
18581;DHT22;9420;50.876;7.012;2022-08-19T05:24:19;18.20;99.90
18581;DHT22;9420;50.876;7.012;2022-08-19T05:26:50;18.20;99.90
18581;DHT22;9420;50.876;7.012;2022-08-19T05:29:23;18.20;99.90
18581;DHT22;9420;50.876;7.012;2022-08-19T05:31:53;18.20;99.90
18581;DHT22;9420;50.876;7.012;2022-08-19T05:34:23;18.20;99.90
18581;DHT22;9420;50.876;7.012;2022-08-19T05:36:56;18.30;99.90
18581;DHT22;9420;50.876;7.012;2022-08-19T05:39:26;18.40;99.90
18581;DHT22;9420;50.876;7.012;2022-08-19T05:41:59;18.40;99.90
18581;DHT22;9420;50.876;7.012;2022-08-19T05:44:31;18.50;99.90
18581;DHT22;9420;50.876;7.012;2022-08-19T05:47:00;18.50;99.90
18581;DHT22;9420;50.876;7.012;2022-08-19T05:49:32;18.60;99.90
18581;DHT22;9420;50.876;7.012;2022-08-19T05:52:02;18.60;99.90
18581;DHT22;9420;50.876;7.012;2022-08-19T05:54:30;18.70;99.90
18581;DHT22;9420;50.876;7.012;2022-08-19T05:56:57;18.70;99.90
18581;DHT22;9420;50.876;7.012;2022-08-19T05:59:24;18.70;99.90
18581;DHT22;9420;50.876;7.012;2022-08-19T06:01:52;18.70;99.90
18581;DHT22;9420;50.876;7.012;2022-08-19T06:04:23;18.70;99.90
18581;DHT22;9420;50.876;7.012;2022-08-19T06:06:55;18.70;99.90
18581;DHT22;9420;50.876;7.012;2022-08-19T06:09:23;18.70;99.90
18581;DHT22;9420;50.876;7.012;2022-08-19T06:11:52;18.70;99.90
18581;DHT22;9420;50.876;7.012;2022-08-19T06:14:27;18.70;99.90
18581;DHT22;9420;50.876;7.012;2022-08-19T06:16:57;18.80;99.90
18581;DHT22;9420;50.876;7.012;2022-08-19T06:19:29;18.80;99.90
18581;DHT22;9420;50.876;7.012;2022-08-19T06:21:59;18.90;99.90
18581;DHT22;9420;50.876;7.012;2022-08-19T06:24:29;19.00;99.90
18581;DHT22;9420;50.876;7.012;2022-08-19T06:26:58;19.00;99.90
18581;DHT22;9420;50.876;7.012;2022-08-19T06:29:26;19.00;99.90
18581;DHT22;9420;50.876;7.012;2022-08-19T06:31:56;19.10;99.90
18581;DHT22;9420;50.876;7.012;2022-08-19T06:34:27;19.20;99.90
18581;DHT22;9420;50.876;7.012;2022-08-19T06:36:56;19.20;99.90
18581;DHT22;9420;50.876;7.012;2022-08-19T06:39:28;19.30;99.90
18581;DHT22;9420;50.876;7.012;2022-08-19T06:41:59;19.40;99.90
18581;DHT22;9420;50.876;7.012;2022-08-19T06:44:30;19.50;99.90
18581;DHT22;9420;50.876;7.012;2022-08-19T06:47:01;19.60;99.90
18581;DHT22;9420;50.876;7.012;2022-08-19T06:49:29;19.60;99.90
18581;DHT22;9420;50.876;7.012;2022-08-19T06:51:59;19.60;99.90
18581;DHT22;9420;50.876;7.012;2022-08-19T06:54:39;19.80;99.90
18581;DHT22;9420;50.876;7.012;2022-08-19T06:57:07;19.90;99.90
18581;DHT22;9420;50.876;7.012;2022-08-19T06:59:40;20.00;99.90
18581;DHT22;9420;50.876;7.012;2022-08-19T07:02:07;20.10;99.90
18581;DHT22;9420;50.876;7.012;2022-08-19T07:04:36;20.20;99.90
18581;DHT22;9420;50.876;7.012;2022-08-19T07:07:08;20.20;99.90
18581;DHT22;9420;50.876;7.012;2022-08-19T07:09:38;20.30;99.90
18581;DHT22;9420;50.876;7.012;2022-08-19T07:12:08;20.40;99.90
18581;DHT22;9420;50.876;7.012;2022-08-19T07:14:38;20.40;99.90
18581;DHT22;9420;50.876;7.012;2022-08-19T07:17:11;20.50;99.90
18581;DHT22;9420;50.876;7.012;2022-08-19T07:19:39;20.70;99.90
18581;DHT22;9420;50.876;7.012;2022-08-19T07:22:10;20.80;99.90
18581;DHT22;9420;50.876;7.012;2022-08-19T07:24:37;20.90;99.90
18581;DHT22;9420;50.876;7.012;2022-08-19T07:27:06;21.00;99.90
18581;DHT22;9420;50.876;7.012;2022-08-19T07:29:36;21.10;99.90
18581;DHT22;9420;50.876;7.012;2022-08-19T07:32:04;21.10;99.90
18581;DHT22;9420;50.876;7.012;2022-08-19T07:34:32;21.30;99.90
18581;DHT22;9420;50.876;7.012;2022-08-19T07:37:03;21.50;99.90
18581;DHT22;9420;50.876;7.012;2022-08-19T07:39:35;21.60;99.90
18581;DHT22;9420;50.876;7.012;2022-08-19T07:42:06;21.70;99.90
18581;DHT22;9420;50.876;7.012;2022-08-19T07:44:35;21.80;99.90
18581;DHT22;9420;50.876;7.012;2022-08-19T07:47:05;22.00;99.90
18581;DHT22;9420;50.876;7.012;2022-08-19T07:49:33;21.90;99.90
18581;DHT22;9420;50.876;7.012;2022-08-19T07:52:02;21.90;99.90
18581;DHT22;9420;50.876;7.012;2022-08-19T07:54:34;22.20;99.90
18581;DHT22;9420;50.876;7.012;2022-08-19T07:57:05;22.30;99.90
18581;DHT22;9420;50.876;7.012;2022-08-19T07:59:32;22.30;99.90
18581;DHT22;9420;50.876;7.012;2022-08-19T08:01:59;22.00;99.90
18581;DHT22;9420;50.876;7.012;2022-08-19T08:04:28;22.20;99.90
18581;DHT22;9420;50.876;7.012;2022-08-19T08:07:15;22.10;99.90
18581;DHT22;9420;50.876;7.012;2022-08-19T08:10:02;22.00;99.90
18581;DHT22;9420;50.876;7.012;2022-08-19T08:12:34;21.90;99.90
18581;DHT22;9420;50.876;7.012;2022-08-19T08:15:09;21.90;99.90
18581;DHT22;9420;50.876;7.012;2022-08-19T08:17:42;22.10;99.90
18581;DHT22;9420;50.876;7.012;2022-08-19T08:20:10;22.30;99.90
18581;DHT22;9420;50.876;7.012;2022-08-19T08:22:43;22.40;99.90
18581;DHT22;9420;50.876;7.012;2022-08-19T08:25:29;22.40;99.90
18581;DHT22;9420;50.876;7.012;2022-08-19T08:27:58;22.40;99.90
18581;DHT22;9420;50.876;7.012;2022-08-19T08:30:27;22.70;99.90
18581;DHT22;9420;50.876;7.012;2022-08-19T08:32:55;22.60;99.90
18581;DHT22;9420;50.876;7.012;2022-08-19T08:35:23;22.70;99.90
18581;DHT22;9420;50.876;7.012;2022-08-19T08:37:53;22.40;99.90
18581;DHT22;9420;50.876;7.012;2022-08-19T08:40:26;22.60;99.90
18581;DHT22;9420;50.876;7.012;2022-08-19T08:42:59;22.50;99.90
18581;DHT22;9420;50.876;7.012;2022-08-19T08:45:36;22.50;99.90
18581;DHT22;9420;50.876;7.012;2022-08-19T08:48:13;22.60;99.90
18581;DHT22;9420;50.876;7.012;2022-08-19T08:50:46;22.60;99.90
18581;DHT22;9420;50.876;7.012;2022-08-19T08:53:19;22.80;99.90
18581;DHT22;9420;50.876;7.012;2022-08-19T08:55:49;23.00;99.90
18581;DHT22;9420;50.876;7.012;2022-08-19T08:58:20;23.00;99.90
18581;DHT22;9420;50.876;7.012;2022-08-19T09:00:53;22.90;99.90
18581;DHT22;9420;50.876;7.012;2022-08-19T09:03:22;23.00;99.90
18581;DHT22;9420;50.876;7.012;2022-08-19T09:05:58;23.10;99.90
18581;DHT22;9420;50.876;7.012;2022-08-19T09:08:37;23.30;99.90
18581;DHT22;9420;50.876;7.012;2022-08-19T09:11:15;23.30;99.90
18581;DHT22;9420;50.876;7.012;2022-08-19T09:13:56;23.40;99.90
18581;DHT22;9420;50.876;7.012;2022-08-19T09:16:36;23.20;99.90
18581;DHT22;9420;50.876;7.012;2022-08-19T09:19:07;23.30;99.90
18581;DHT22;9420;50.876;7.012;2022-08-19T09:21:36;23.50;99.90
18581;DHT22;9420;50.876;7.012;2022-08-19T09:24:05;23.60;99.90
18581;DHT22;9420;50.876;7.012;2022-08-19T09:26:34;23.90;99.90
18581;DHT22;9420;50.876;7.012;2022-08-19T09:29:01;24.10;99.90
18581;DHT22;9420;50.876;7.012;2022-08-19T09:31:31;24.10;99.90
18581;DHT22;9420;50.876;7.012;2022-08-19T09:33:59;24.30;99.90
18581;DHT22;9420;50.876;7.012;2022-08-19T09:36:29;24.60;99.90
18581;DHT22;9420;50.876;7.012;2022-08-19T09:38:58;24.90;99.90
18581;DHT22;9420;50.876;7.012;2022-08-19T09:41:26;25.00;99.90
18581;DHT22;9420;50.876;7.012;2022-08-19T09:43:56;24.70;99.90
18581;DHT22;9420;50.876;7.012;2022-08-19T09:46:26;24.50;99.90
18581;DHT22;9420;50.876;7.012;2022-08-19T09:48:57;24.40;99.90
18581;DHT22;9420;50.876;7.012;2022-08-19T09:51:27;24.70;99.90
18581;DHT22;9420;50.876;7.012;2022-08-19T09:53:58;25.00;99.90
18581;DHT22;9420;50.876;7.012;2022-08-19T09:56:27;24.90;99.90
18581;DHT22;9420;50.876;7.012;2022-08-19T09:58:58;24.70;99.90
18581;DHT22;9420;50.876;7.012;2022-08-19T10:01:27;24.80;99.90
18581;DHT22;9420;50.876;7.012;2022-08-19T10:03:57;25.40;99.90
18581;DHT22;9420;50.876;7.012;2022-08-19T10:06:27;25.70;99.90
18581;DHT22;9420;50.876;7.012;2022-08-19T10:08:59;25.60;99.90
18581;DHT22;9420;50.876;7.012;2022-08-19T10:11:28;25.90;99.90
18581;DHT22;9420;50.876;7.012;2022-08-19T10:13:58;25.90;99.90
18581;DHT22;9420;50.876;7.012;2022-08-19T10:16:30;25.90;99.90
18581;DHT22;9420;50.876;7.012;2022-08-19T10:18:58;26.10;99.90
18581;DHT22;9420;50.876;7.012;2022-08-19T10:21:29;25.70;99.90
18581;DHT22;9420;50.876;7.012;2022-08-19T10:24:00;25.50;99.90
18581;DHT22;9420;50.876;7.012;2022-08-19T10:26:31;26.00;99.90
18581;DHT22;9420;50.876;7.012;2022-08-19T10:29:03;26.10;99.90
18581;DHT22;9420;50.876;7.012;2022-08-19T10:31:32;26.70;99.90
18581;DHT22;9420;50.876;7.012;2022-08-19T10:34:00;27.10;99.90
18581;DHT22;9420;50.876;7.012;2022-08-19T10:36:30;27.70;99.90
18581;DHT22;9420;50.876;7.012;2022-08-19T10:39:03;28.10;99.90
18581;DHT22;9420;50.876;7.012;2022-08-19T10:41:33;28.00;99.90
18581;DHT22;9420;50.876;7.012;2022-08-19T10:44:05;27.20;99.90
18581;DHT22;9420;50.876;7.012;2022-08-19T10:46:37;26.90;99.90
18581;DHT22;9420;50.876;7.012;2022-08-19T10:49:08;26.60;99.90
18581;DHT22;9420;50.876;7.012;2022-08-19T10:51:37;26.20;99.90
18581;DHT22;9420;50.876;7.012;2022-08-19T10:54:25;26.10;99.90
18581;DHT22;9420;50.876;7.012;2022-08-19T10:57:13;26.90;99.90
18581;DHT22;9420;50.876;7.012;2022-08-19T10:59:41;27.60;99.90
18581;DHT22;9420;50.876;7.012;2022-08-19T11:02:10;27.60;99.90
18581;DHT22;9420;50.876;7.012;2022-08-19T11:04:39;28.10;99.90
18581;DHT22;9420;50.876;7.012;2022-08-19T11:07:07;28.30;99.90
18581;DHT22;9420;50.876;7.012;2022-08-19T11:09:39;27.80;99.90
18581;DHT22;9420;50.876;7.012;2022-08-19T11:12:08;27.70;99.90
18581;DHT22;9420;50.876;7.012;2022-08-19T11:14:36;28.10;99.90
18581;DHT22;9420;50.876;7.012;2022-08-19T11:17:05;27.90;99.90
18581;DHT22;9420;50.876;7.012;2022-08-19T11:19:33;27.10;99.90
18581;DHT22;9420;50.876;7.012;2022-08-19T11:22:01;26.70;99.90
18581;DHT22;9420;50.876;7.012;2022-08-19T11:24:31;26.70;99.90
18581;DHT22;9420;50.876;7.012;2022-08-19T11:27:02;26.60;99.90
18581;DHT22;9420;50.876;7.012;2022-08-19T11:29:32;27.70;99.90
18581;DHT22;9420;50.876;7.012;2022-08-19T11:32:04;27.80;99.90
18581;DHT22;9420;50.876;7.012;2022-08-19T11:34:34;27.80;99.90
18581;DHT22;9420;50.876;7.012;2022-08-19T11:37:03;27.70;99.90
18581;DHT22;9420;50.876;7.012;2022-08-19T11:39:33;27.90;99.90
18581;DHT22;9420;50.876;7.012;2022-08-19T11:42:04;28.70;99.90
18581;DHT22;9420;50.876;7.012;2022-08-19T11:44:53;28.90;99.90
18581;DHT22;9420;50.876;7.012;2022-08-19T11:47:22;29.60;99.90
18581;DHT22;9420;50.876;7.012;2022-08-19T11:49:49;30.20;99.90
18581;DHT22;9420;50.876;7.012;2022-08-19T11:52:16;29.40;99.90
18581;DHT22;9420;50.876;7.012;2022-08-19T11:54:43;29.60;99.90
18581;DHT22;9420;50.876;7.012;2022-08-19T11:57:10;29.20;99.90
18581;DHT22;9420;50.876;7.012;2022-08-19T11:59:39;29.50;99.90
18581;DHT22;9420;50.876;7.012;2022-08-19T12:02:06;28.70;99.90
18581;DHT22;9420;50.876;7.012;2022-08-19T12:04:36;28.70;99.90
18581;DHT22;9420;50.876;7.012;2022-08-19T12:07:03;29.30;99.90
18581;DHT22;9420;50.876;7.012;2022-08-19T12:09:30;30.20;99.90
18581;DHT22;9420;50.876;7.012;2022-08-19T12:11:59;30.50;99.90
18581;DHT22;9420;50.876;7.012;2022-08-19T12:14:27;30.60;99.90
18581;DHT22;9420;50.876;7.012;2022-08-19T12:16:56;30.50;99.90
18581;DHT22;9420;50.876;7.012;2022-08-19T12:19:23;29.50;99.90
18581;DHT22;9420;50.876;7.012;2022-08-19T12:21:58;30.00;99.90
18581;DHT22;9420;50.876;7.012;2022-08-19T12:24:27;31.60;99.90
18581;DHT22;9420;50.876;7.012;2022-08-19T12:26:54;29.50;99.90
18581;DHT22;9420;50.876;7.012;2022-08-19T12:29:24;28.60;99.90
18581;DHT22;9420;50.876;7.012;2022-08-19T12:31:55;29.20;99.90
18581;DHT22;9420;50.876;7.012;2022-08-19T12:34:27;30.60;99.90
18581;DHT22;9420;50.876;7.012;2022-08-19T12:36:58;30.70;99.90
18581;DHT22;9420;50.876;7.012;2022-08-19T12:39:28;31.70;99.90
18581;DHT22;9420;50.876;7.012;2022-08-19T12:41:56;31.30;99.90
18581;DHT22;9420;50.876;7.012;2022-08-19T12:44:24;30.90;99.90
18581;DHT22;9420;50.876;7.012;2022-08-19T12:46:51;30.10;99.90
18581;DHT22;9420;50.876;7.012;2022-08-19T12:49:18;30.40;99.90
18581;DHT22;9420;50.876;7.012;2022-08-19T12:51:45;30.20;99.90
18581;DHT22;9420;50.876;7.012;2022-08-19T12:54:13;30.40;99.90
18581;DHT22;9420;50.876;7.012;2022-08-19T12:56:41;31.00;99.90
18581;DHT22;9420;50.876;7.012;2022-08-19T12:59:10;30.70;99.90
18581;DHT22;9420;50.876;7.012;2022-08-19T13:01:37;31.10;99.90
18581;DHT22;9420;50.876;7.012;2022-08-19T13:04:04;32.60;99.90
18581;DHT22;9420;50.876;7.012;2022-08-19T13:06:31;32.90;99.70
18581;DHT22;9420;50.876;7.012;2022-08-19T13:08:58;32.90;99.60
18581;DHT22;9420;50.876;7.012;2022-08-19T13:11:27;33.20;99.90
18581;DHT22;9420;50.876;7.012;2022-08-19T13:13:58;33.60;99.90
18581;DHT22;9420;50.876;7.012;2022-08-19T13:16:26;33.10;99.90
18581;DHT22;9420;50.876;7.012;2022-08-19T13:18:54;32.60;99.90
18581;DHT22;9420;50.876;7.012;2022-08-19T13:21:24;32.40;99.90
18581;DHT22;9420;50.876;7.012;2022-08-19T13:23:55;32.50;99.90
18581;DHT22;9420;50.876;7.012;2022-08-19T13:26:22;33.20;99.90
18581;DHT22;9420;50.876;7.012;2022-08-19T13:28:51;33.30;98.80
18581;DHT22;9420;50.876;7.012;2022-08-19T13:31:38;32.10;99.20
18581;DHT22;9420;50.876;7.012;2022-08-19T13:34:30;31.70;99.40
18581;DHT22;9420;50.876;7.012;2022-08-19T13:36:59;32.10;99.20
18581;DHT22;9420;50.876;7.012;2022-08-19T13:39:28;32.30;99.10
18581;DHT22;9420;50.876;7.012;2022-08-19T13:41:55;32.60;97.50
18581;DHT22;9420;50.876;7.012;2022-08-19T13:44:24;33.20;96.50
18581;DHT22;9420;50.876;7.012;2022-08-19T13:46:51;32.40;96.40
18581;DHT22;9420;50.876;7.012;2022-08-19T13:49:19;31.50;96.50
18581;DHT22;9420;50.876;7.012;2022-08-19T13:51:46;32.00;96.50
18581;DHT22;9420;50.876;7.012;2022-08-19T13:54:13;31.80;97.10
18581;DHT22;9420;50.876;7.012;2022-08-19T13:56:41;32.20;97.30
18581;DHT22;9420;50.876;7.012;2022-08-19T13:59:10;32.70;96.10
18581;DHT22;9420;50.876;7.012;2022-08-19T14:01:39;32.70;96.30
18581;DHT22;9420;50.876;7.012;2022-08-19T14:04:08;33.60;94.10
18581;DHT22;9420;50.876;7.012;2022-08-19T14:06:35;34.00;93.90
18581;DHT22;9420;50.876;7.012;2022-08-19T14:09:03;34.30;91.90
18581;DHT22;9420;50.876;7.012;2022-08-19T14:11:31;33.60;92.30
18581;DHT22;9420;50.876;7.012;2022-08-19T14:13:58;33.30;92.20
18581;DHT22;9420;50.876;7.012;2022-08-19T14:16:25;33.90;92.00
18581;DHT22;9420;50.876;7.012;2022-08-19T14:18:54;34.20;90.50
18581;DHT22;9420;50.876;7.012;2022-08-19T14:21:22;33.30;91.40
18581;DHT22;9420;50.876;7.012;2022-08-19T14:23:51;33.40;91.00
18581;DHT22;9420;50.876;7.012;2022-08-19T14:26:20;32.90;91.60
18581;DHT22;9420;50.876;7.012;2022-08-19T14:28:48;31.60;91.90
18581;DHT22;9420;50.876;7.012;2022-08-19T14:31:17;31.70;92.40
18581;DHT22;9420;50.876;7.012;2022-08-19T14:33:46;32.50;92.10
18581;DHT22;9420;50.876;7.012;2022-08-19T14:36:15;30.80;92.90
18581;DHT22;9420;50.876;7.012;2022-08-19T14:38:43;30.90;94.20
18581;DHT22;9420;50.876;7.012;2022-08-19T14:41:13;31.60;94.10
18581;DHT22;9420;50.876;7.012;2022-08-19T14:43:43;30.80;92.70
18581;DHT22;9420;50.876;7.012;2022-08-19T14:46:12;30.70;93.80
18581;DHT22;9420;50.876;7.012;2022-08-19T14:48:42;30.70;94.60
18581;DHT22;9420;50.876;7.012;2022-08-19T14:51:10;30.30;94.60
18581;DHT22;9420;50.876;7.012;2022-08-19T14:53:38;29.30;95.30
18581;DHT22;9420;50.876;7.012;2022-08-19T14:56:09;29.50;96.00
18581;DHT22;9420;50.876;7.012;2022-08-19T14:58:38;30.30;97.20
18581;DHT22;9420;50.876;7.012;2022-08-19T15:01:07;30.60;96.00
18581;DHT22;9420;50.876;7.012;2022-08-19T15:03:35;30.40;95.70
18581;DHT22;9420;50.876;7.012;2022-08-19T15:06:04;30.90;95.00
18581;DHT22;9420;50.876;7.012;2022-08-19T15:08:35;31.50;94.40
18581;DHT22;9420;50.876;7.012;2022-08-19T15:11:09;32.00;92.50
18581;DHT22;9420;50.876;7.012;2022-08-19T15:13:37;32.20;93.40
18581;DHT22;9420;50.876;7.012;2022-08-19T15:16:06;32.10;92.00
18581;DHT22;9420;50.876;7.012;2022-08-19T15:18:34;32.20;91.80
18581;DHT22;9420;50.876;7.012;2022-08-19T15:21:03;31.70;91.40
18581;DHT22;9420;50.876;7.012;2022-08-19T15:23:30;32.10;91.60
18581;DHT22;9420;50.876;7.012;2022-08-19T15:25:57;32.40;90.60
18581;DHT22;9420;50.876;7.012;2022-08-19T15:28:26;32.90;90.00
18581;DHT22;9420;50.876;7.012;2022-08-19T15:30:53;33.40;87.00
18581;DHT22;9420;50.876;7.012;2022-08-19T15:33:20;33.70;87.40
18581;DHT22;9420;50.876;7.012;2022-08-19T15:35:47;33.00;87.70
18581;DHT22;9420;50.876;7.012;2022-08-19T15:38:16;33.10;86.70
18581;DHT22;9420;50.876;7.012;2022-08-19T15:40:47;32.20;87.20
18581;DHT22;9420;50.876;7.012;2022-08-19T15:43:15;31.70;87.70
18581;DHT22;9420;50.876;7.012;2022-08-19T15:45:45;32.90;90.20
18581;DHT22;9420;50.876;7.012;2022-08-19T15:48:12;33.30;87.40
18581;DHT22;9420;50.876;7.012;2022-08-19T15:50:39;33.20;86.10
18581;DHT22;9420;50.876;7.012;2022-08-19T15:53:08;31.90;88.70
18581;DHT22;9420;50.876;7.012;2022-08-19T15:55:41;31.70;90.10
18581;DHT22;9420;50.876;7.012;2022-08-19T15:58:11;31.50;91.00
18581;DHT22;9420;50.876;7.012;2022-08-19T16:01:01;32.30;89.80
18581;DHT22;9420;50.876;7.012;2022-08-19T16:03:48;32.10;89.50